Time;durP1;ratioP1;P1;durP2;ratioP2;P2;SDS_P1;SDS_P2;PMS_P1;PMS_P2;Temp;Humidity;BMP_temperature;BMP_pressure;BME280_temperature;BME280_humidity;BME280_pressure;Samples;Min_cycle;Max_cycle;Signal;HPM_P1;HPM_P2
2022/03/11 00:00:42;;;;;;;4.85;2.20;;;;;;;16.94;17.29;101125.47;5111023;28;20039;-71
2022/03/11 00:03:10;;;;;;;3.17;1.90;;;;;;;16.93;17.11;101111.22;5114070;27;20176;-71
2022/03/11 00:05:36;;;;;;;3.65;1.85;;;;;;;16.94;16.85;101117.44;5116191;28;20080;-72
2022/03/11 00:08:02;;;;;;;4.22;2.00;;;;;;;16.98;16.97;101120.75;5104851;28;20114;-70
2022/03/11 00:10:27;;;;;;;4.05;2.30;;;;;;;16.97;17.21;101111.88;5100433;28;20039;-71
2022/03/11 00:12:52;;;;;;;3.90;2.35;;;;;;;16.99;17.04;101101.91;5116821;27;20394;-70
2022/03/11 00:15:18;;;;;;;3.40;2.20;;;;;;;17.00;17.02;101108.09;5116858;28;20032;-69
2022/03/11 00:17:43;;;;;;;4.75;2.30;;;;;;;17.01;17.15;101105.28;5113448;28;20142;-69
2022/03/11 00:20:09;;;;;;;6.22;2.03;;;;;;;17.02;17.13;101106.16;5110960;28;20042;-69
2022/03/11 00:22:35;;;;;;;3.30;2.00;;;;;;;17.03;16.81;101105.19;5111278;28;20031;-70
2022/03/11 00:25:00;;;;;;;4.10;2.40;;;;;;;17.05;17.08;101101.41;5113172;27;20122;-70
2022/03/11 00:27:26;;;;;;;6.03;2.40;;;;;;;17.08;17.11;101102.97;5112982;27;20493;-69
2022/03/11 00:29:51;;;;;;;4.05;2.20;;;;;;;17.06;17.42;101097.75;5112382;27;20092;-70
2022/03/11 00:32:17;;;;;;;4.32;2.38;;;;;;;17.06;17.58;101095.09;5111240;27;20104;-70
2022/03/11 00:34:43;;;;;;;4.22;2.35;;;;;;;17.08;17.01;101087.78;5112578;27;20038;-72
2022/03/11 00:37:08;;;;;;;3.67;2.38;;;;;;;17.12;17.10;101098.25;5111733;27;20039;-70
2022/03/11 00:39:33;;;;;;;5.90;1.88;;;;;;;17.13;16.90;101091.94;5110860;28;20056;-71
2022/03/11 00:41:59;;;;;;;5.07;2.10;;;;;;;17.16;17.30;101091.66;5119083;27;20036;-72
2022/03/11 00:44:24;;;;;;;3.38;2.05;;;;;;;17.16;16.96;101089.84;5116253;28;20031;-69
2022/03/11 00:46:50;;;;;;;4.68;2.92;;;;;;;17.21;17.01;101094.81;5117004;28;20102;-69
2022/03/11 00:49:15;;;;;;;4.90;2.65;;;;;;;17.20;16.88;101090.44;5111863;28;20031;-67
2022/03/11 00:51:41;;;;;;;3.42;2.13;;;;;;;17.22;16.84;101091.16;5109571;27;20088;-73
2022/03/11 00:54:07;;;;;;;4.28;2.30;;;;;;;17.23;16.82;101083.00;5116106;28;20439;-72
2022/03/11 00:56:33;;;;;;;4.50;2.40;;;;;;;17.22;16.82;101080.47;5115862;28;20110;-72
2022/03/11 00:58:58;;;;;;;4.18;2.20;;;;;;;17.22;16.98;101080.47;5115931;28;20139;-72
2022/03/11 01:01:24;;;;;;;7.22;1.98;;;;;;;17.26;16.69;101084.59;5115331;27;20032;-72
2022/03/11 01:03:49;;;;;;;3.20;2.25;;;;;;;17.28;16.80;101085.28;5116073;28;20126;-70
2022/03/11 01:06:15;;;;;;;5.88;2.00;;;;;;;17.33;16.74;101084.94;5115565;28;20391;-71
2022/03/11 01:08:40;;;;;;;3.17;2.00;;;;;;;17.34;17.17;101073.25;5116025;27;20110;-72
2022/03/11 01:11:08;;;;;;;4.20;2.45;;;;;;;17.34;16.93;101071.41;5106359;28;20047;-72
2022/03/11 01:13:34;;;;;;;3.42;2.22;;;;;;;17.32;16.83;101073.38;5093853;28;20055;-71
2022/03/11 01:16:00;;;;;;;3.60;2.28;;;;;;;17.30;16.80;101066.44;5114790;28;20028;-72
2022/03/11 01:18:26;;;;;;;2.92;1.98;;;;;;;17.25;17.24;101066.84;5114099;28;20080;-72
2022/03/11 01:20:52;;;;;;;5.78;2.58;;;;;;;17.26;17.01;101070.34;5114562;28;20063;-72
2022/03/11 01:23:17;;;;;;;6.80;2.17;;;;;;;17.24;17.16;101067.81;5114781;28;20502;-72
2022/03/11 01:25:43;;;;;;;6.50;2.03;;;;;;;17.24;17.11;101073.16;5114367;28;20093;-72
2022/03/11 01:28:08;;;;;;;5.10;2.40;;;;;;;17.25;17.46;101082.88;5114745;28;20038;-70
2022/03/11 01:30:34;;;;;;;3.75;2.13;;;;;;;17.24;17.23;101076.66;5113461;28;20042;-71
2022/03/11 01:32:59;;;;;;;4.63;2.50;;;;;;;17.28;17.12;101074.59;5114663;28;20386;-70
2022/03/11 01:35:25;;;;;;;4.32;2.45;;;;;;;17.28;17.10;101063.88;5114663;28;20035;-71
2022/03/11 01:37:50;;;;;;;4.97;2.22;;;;;;;17.34;17.00;101067.91;5113981;28;20466;-70
2022/03/11 01:40:16;;;;;;;4.43;2.33;;;;;;;17.33;17.01;101072.38;5114177;28;20027;-71
2022/03/11 01:42:42;;;;;;;3.38;1.95;;;;;;;17.35;17.13;101065.09;5130043;27;20035;-71
2022/03/11 01:45:08;;;;;;;4.43;2.38;;;;;;;17.34;17.08;101063.38;5114178;28;20407;-71
2022/03/11 01:47:34;;;;;;;4.00;2.13;;;;;;;17.32;17.05;101070.69;5114181;28;20147;-70
2022/03/11 01:49:59;;;;;;;4.30;2.53;;;;;;;17.28;17.26;101058.53;5100777;27;20027;-70
2022/03/11 01:52:25;;;;;;;2.75;1.95;;;;;;;17.28;17.06;101057.69;5094393;28;20035;-71
2022/03/11 01:54:52;;;;;;;4.40;2.88;;;;;;;17.27;17.14;101059.53;5093791;28;20038;-70
2022/03/11 01:57:18;;;;;;;5.38;2.15;;;;;;;17.30;17.07;101058.44;5093660;28;20049;-71
2022/03/11 01:59:44;;;;;;;3.80;2.17;;;;;;;17.32;16.74;101060.00;5093658;28;20028;-67
2022/03/11 02:02:09;;;;;;;5.57;2.40;;;;;;;17.33;16.85;101061.69;5093695;28;20023;-69
2022/03/11 02:04:35;;;;;;;4.40;2.20;;;;;;;17.33;17.06;101056.34;5093512;28;20024;-69
2022/03/11 02:07:01;;;;;;;5.28;2.10;;;;;;;17.33;17.24;101058.19;5093478;28;20039;-69
2022/03/11 02:09:27;;;;;;;4.95;2.15;;;;;;;17.30;17.06;101053.91;5093513;28;20081;-70
2022/03/11 02:11:53;;;;;;;6.63;2.50;;;;;;;17.25;16.97;101050.78;5101295;28;20031;-69
2022/03/11 02:14:19;;;;;;;2.85;1.80;;;;;;;17.26;16.83;101055.16;5096389;28;20039;-69
2022/03/11 02:16:44;;;;;;;3.92;2.22;;;;;;;17.26;16.87;101056.97;5096916;28;20039;-70
2022/03/11 02:19:10;;;;;;;5.20;2.78;;;;;;;17.26;16.83;101060.50;5099849;28;20035;-70
2022/03/11 02:21:43;;;;;;;4.72;2.67;;;;;;;17.27;16.80;101061.34;5092997;28;20054;-70
2022/03/11 02:24:09;;;;;;;4.47;2.70;;;;;;;17.33;17.05;101058.19;5093166;28;20335;-71
2022/03/11 02:26:35;;;;;;;6.28;2.63;;;;;;;17.36;16.88;101060.56;5110398;28;20039;-70
2022/03/11 02:29:01;;;;;;;4.47;2.13;;;;;;;17.36;17.29;101061.44;5107592;28;20023;-70
2022/03/11 02:31:29;;;;;;;4.07;2.45;;;;;;;17.35;16.95;101059.75;5100345;28;20059;-69
2022/03/11 02:33:54;;;;;;;5.38;2.70;;;;;;;17.35;16.87;101057.06;5112533;28;20039;-71
2022/03/11 02:36:20;;;;;;;4.18;2.67;;;;;;;17.39;16.91;101066.53;5111919;28;20406;-71
2022/03/11 02:38:45;;;;;;;5.80;2.97;;;;;;;17.43;16.97;101060.91;5111852;28;20065;-71
2022/03/11 02:41:11;;;;;;;5.63;2.67;;;;;;;17.46;16.80;101057.97;5093118;28;20032;-71
2022/03/11 02:43:37;;;;;;;3.63;2.65;;;;;;;17.51;16.99;101063.81;5100494;27;20081;-70
2022/03/11 02:46:03;;;;;;;4.70;2.53;;;;;;;17.52;16.81;101060.16;5110298;28;20027;-72
2022/03/11 02:48:29;;;;;;;5.40;3.05;;;;;;;17.50;16.97;101051.41;5112109;28;20034;-71
2022/03/11 02:50:55;;;;;;;6.65;3.42;;;;;;;17.49;17.23;101050.56;5112100;28;20031;-71
2022/03/11 02:53:21;;;;;;;5.65;3.22;;;;;;;17.47;17.05;101048.97;5111682;28;20031;-70
2022/03/11 02:55:46;;;;;;;9.75;3.97;;;;;;;17.43;17.17;101048.41;5111539;28;20032;-70
2022/03/11 02:58:12;;;;;;;5.32;3.15;;;;;;;17.47;17.16;101047.16;5092678;28;20028;-71
2022/03/11 03:00:37;;;;;;;9.13;3.95;;;;;;;17.51;17.01;101042.41;5092381;28;20406;-71
2022/03/11 03:03:03;;;;;;;5.65;3.20;;;;;;;17.54;16.77;101044.81;5092843;28;20119;-72
2022/03/11 03:05:29;;;;;;;5.13;3.00;;;;;;;17.58;17.07;101040.06;5095951;28;20080;-72
2022/03/11 03:07:54;;;;;;;4.32;2.58;;;;;;;17.59;17.08;101039.91;5111299;28;20504;-71
2022/03/11 03:10:20;;;;;;;6.53;3.28;;;;;;;17.61;16.90;101035.28;5109679;28;20067;-71
2022/03/11 03:12:45;;;;;;;7.25;3.13;;;;;;;17.62;16.86;101041.50;5111656;28;20039;-70
2022/03/11 03:15:11;;;;;;;3.53;2.58;;;;;;;17.60;16.88;101035.41;5111622;28;20360;-70
2022/03/11 03:17:37;;;;;;;5.43;2.83;;;;;;;17.57;16.96;101030.31;5111191;28;20054;-70
2022/03/11 03:20:04;;;;;;;5.00;3.22;;;;;;;17.58;16.69;101027.50;5111447;28;20126;-70
2022/03/11 03:22:30;;;;;;;4.72;2.78;;;;;;;17.61;16.81;101024.56;5111403;28;20046;-70
2022/03/11 03:24:55;;;;;;;2.97;2.20;;;;;;;17.62;16.68;101023.59;5105633;28;20471;-71
2022/03/11 03:27:21;;;;;;;5.20;2.85;;;;;;;17.63;16.70;101030.66;5092590;28;20039;-71
2022/03/11 03:29:46;;;;;;;5.13;3.17;;;;;;;17.63;16.76;101030.66;5092615;28;20046;-71
2022/03/11 03:32:12;;;;;;;5.20;3.05;;;;;;;17.64;16.83;101023.50;5092653;28;20032;-71
2022/03/11 03:34:39;;;;;;;5.32;2.63;;;;;;;17.66;16.74;101024.19;5091289;28;20032;-71
2022/03/11 03:37:10;;;;;;;6.50;3.15;;;;;;;17.66;16.71;101016.16;5091721;28;20048;-70
2022/03/11 03:39:37;;;;;;;;;;;;;;;17.59;17.26;101015.81;5102315;28;20066;-70
2022/03/11 03:42:03;;;;;;;5.78;3.05;;;;;;;17.61;17.25;101023.75;5112851;28;19919;-71
2022/03/11 03:44:29;;;;;;;4.25;2.90;;;;;;;17.61;16.76;101016.53;5113032;28;20114;-70
2022/03/11 03:46:54;;;;;;;5.38;3.05;;;;;;;17.61;17.05;101010.34;5112805;28;20114;-70
2022/03/11 03:49:20;;;;;;;5.20;3.50;;;;;;;17.60;17.06;101008.66;5113245;28;20503;-70
2022/03/11 03:51:46;;;;;;;6.65;2.97;;;;;;;17.58;16.77;101007.94;5094639;28;20088;-69
2022/03/11 03:54:12;;;;;;;4.97;2.90;;;;;;;17.54;16.77;101004.69;5112278;28;20058;-70
2022/03/11 03:56:41;;;;;;;4.85;3.20;;;;;;;17.49;16.83;101013.09;5112268;28;20482;-70
2022/03/11 03:59:08;;;;;;;6.22;2.97;;;;;;;17.47;17.17;101004.34;5112995;28;20118;-70
2022/03/11 04:01:38;;;;;;;5.55;3.13;;;;;;;17.51;16.79;101010.28;5112248;28;20083;-70
2022/03/11 04:04:05;;;;;;;4.88;3.10;;;;;;;17.53;16.90;101005.66;5112842;28;20048;-69
2022/03/11 04:06:32;;;;;;;5.40;3.10;;;;;;;17.54;16.76;100996.66;5112507;28;20554;-70
2022/03/11 04:08:58;;;;;;;4.47;2.97;;;;;;;17.58;16.77;101003.41;5113249;28;20371;-72
2022/03/11 04:11:25;;;;;;;4.60;2.90;;;;;;;17.53;17.01;101003.81;5112098;28;20051;-69
2022/03/11 04:13:51;;;;;;;4.80;2.92;;;;;;;17.47;16.67;100990.97;5112505;28;20073;-70
2022/03/11 04:16:18;;;;;;;6.53;3.03;;;;;;;17.45;17.24;100992.94;5112447;28;20410;-71
2022/03/11 04:18:43;;;;;;;7.90;3.30;;;;;;;17.44;16.98;100990.38;5112288;28;20482;-70
2022/03/11 04:21:09;;;;;;;7.60;3.15;;;;;;;17.39;17.25;100990.75;5111657;28;20108;-70
2022/03/11 04:23:34;;;;;;;5.43;3.15;;;;;;;17.38;17.10;100989.06;5112888;28;20035;-70
2022/03/11 04:26:01;;;;;;;6.32;3.33;;;;;;;17.41;17.29;100986.13;5112603;28;20059;-70
2022/03/11 04:28:27;;;;;;;5.75;3.28;;;;;;;17.47;17.08;100982.09;5107087;28;20024;-70
2022/03/11 04:30:52;;;;;;;4.82;2.78;;;;;;;17.49;17.19;100981.00;5099815;28;20562;-70
2022/03/11 04:33:18;;;;;;;4.85;3.28;;;;;;;17.51;16.90;100995.06;5111774;28;20038;-71
2022/03/11 04:35:43;;;;;;;6.47;3.53;;;;;;;17.48;16.90;100987.31;5102367;28;20044;-71
2022/03/11 04:38:09;;;;;;;5.45;3.13;;;;;;;17.49;17.18;100985.47;5109359;28;20068;-71
2022/03/11 04:40:35;;;;;;;9.50;3.55;;;;;;;17.52;16.89;100985.22;5111014;28;20108;-71
2022/03/11 04:43:01;;;;;;;5.93;2.72;;;;;;;17.61;17.28;100983.59;5112142;28;20062;-71
2022/03/11 04:45:28;;;;;;;6.43;4.13;;;;;;;17.69;17.24;100995.34;5112557;28;20462;-71
2022/03/11 04:47:53;;;;;;;5.93;3.00;;;;;;;17.74;16.86;100994.06;5113406;28;20031;-71
2022/03/11 04:50:19;;;;;;;7.18;3.33;;;;;;;17.79;16.82;100992.69;5116371;28;20132;-71
2022/03/11 04:52:45;;;;;;;7.20;3.90;;;;;;;17.83;16.88;100988.78;5115085;28;20047;-71
2022/03/11 04:55:11;;;;;;;7.70;3.72;;;;;;;17.89;17.10;100976.69;5115664;28;20509;-72
2022/03/11 04:57:37;;;;;;;5.28;3.17;;;;;;;17.97;17.05;100986.72;5115949;28;20044;-71
2022/03/11 05:00:03;;;;;;;5.53;2.75;;;;;;;18.03;16.84;100980.03;5115820;28;20043;-71
2022/03/11 05:02:30;;;;;;;6.03;3.75;;;;;;;18.03;16.64;100977.34;5115177;28;20043;-72
2022/03/11 05:04:56;;;;;;;7.00;4.40;;;;;;;18.04;17.14;100982.59;5115446;27;20446;-72
2022/03/11 05:07:22;;;;;;;7.40;4.15;;;;;;;18.06;16.40;100979.75;5115219;27;20034;-72
2022/03/11 05:09:48;;;;;;;8.02;4.25;;;;;;;18.09;16.58;100982.19;5115593;27;20529;-72
2022/03/11 05:12:14;;;;;;;4.82;3.25;;;;;;;18.11;16.62;100967.66;5109461;28;20397;-72
2022/03/11 05:14:40;;;;;;;9.55;3.35;;;;;;;18.20;16.62;100970.53;5115653;28;20077;-71
2022/03/11 05:17:05;;;;;;;7.38;3.50;;;;;;;18.27;16.56;100969.84;5113294;28;20519;-71
2022/03/11 05:19:31;;;;;;;6.63;3.58;;;;;;;18.30;16.43;100953.50;5115349;28;20479;-71
2022/03/11 05:21:56;;;;;;;9.73;3.60;;;;;;;18.36;16.42;100960.16;5114520;28;20095;-71
2022/03/11 05:24:22;;;;;;;7.57;3.22;;;;;;;18.43;16.64;100968.47;5115694;28;20483;-71
2022/03/11 05:26:48;;;;;;;6.32;3.15;;;;;;;18.48;16.52;100968.06;5114592;28;20028;-70
2022/03/11 05:29:15;;;;;;;7.45;3.92;;;;;;;18.50;16.63;100969.63;5114982;28;20031;-71
2022/03/11 05:31:41;;;;;;;6.72;3.53;;;;;;;18.50;16.49;100969.63;5114815;28;20054;-70
2022/03/11 05:34:07;;;;;;;9.05;4.20;;;;;;;18.50;16.76;100969.63;5114894;28;20573;-71
2022/03/11 05:36:35;;;;;;;6.38;3.75;;;;;;;18.52;16.81;100972.16;5114412;28;20406;-71
2022/03/11 05:39:01;;;;;;;7.22;3.72;;;;;;;18.51;16.84;100960.59;5114778;27;20398;-71
2022/03/11 05:41:27;;;;;;;9.27;3.60;;;;;;;18.51;16.73;100957.91;5114867;28;20038;-71
2022/03/11 05:43:53;;;;;;;5.78;3.60;;;;;;;18.55;16.76;100964.69;5114925;28;20031;-71
2022/03/11 05:46:19;;;;;;;6.40;3.40;;;;;;;18.56;17.08;100966.38;5113776;28;20394;-70
2022/03/11 05:48:44;;;;;;;5.38;3.28;;;;;;;18.59;17.08;100963.44;5115190;28;20032;-71
2022/03/11 05:51:10;;;;;;;5.18;3.15;;;;;;;18.59;17.25;100951.84;5113857;28;20039;-71
2022/03/11 05:53:36;;;;;;;5.82;3.25;;;;;;;18.62;17.16;100951.59;5115350;28;20032;-71
2022/03/11 05:56:01;;;;;;;5.50;3.05;;;;;;;18.66;17.25;100952.16;5114453;28;20098;-71
2022/03/11 05:58:27;;;;;;;6.57;3.55;;;;;;;18.68;17.18;100947.50;5115017;28;20044;-71
2022/03/11 06:00:52;;;;;;;6.50;3.40;;;;;;;18.67;17.31;100949.34;5102202;28;20036;-71
2022/03/11 06:03:18;;;;;;;5.32;3.42;;;;;;;18.61;17.40;100950.72;5114689;28;20068;-71
2022/03/11 06:05:44;;;;;;;5.18;3.35;;;;;;;18.56;17.48;100953.00;5114739;28;20043;-71
2022/03/11 06:08:09;;;;;;;4.65;2.92;;;;;;;18.54;17.54;100946.91;5114154;28;20040;-71
2022/03/11 06:10:35;;;;;;;7.00;3.60;;;;;;;18.53;17.61;100952.44;5114812;28;20038;-71
2022/03/11 06:13:00;;;;;;;6.53;3.53;;;;;;;18.54;17.45;100948.72;5113957;28;20040;-71
2022/03/11 06:15:26;;;;;;;7.13;3.75;;;;;;;18.56;17.57;100953.00;5114951;28;20023;-70
2022/03/11 06:17:51;;;;;;;5.80;3.03;;;;;;;18.59;17.59;100939.31;5113805;28;20402;-69
2022/03/11 06:20:17;;;;;;;5.40;3.13;;;;;;;18.65;17.16;100934.38;5113950;28;20036;-70
2022/03/11 06:22:48;;;;;;;4.80;3.22;;;;;;;18.70;17.58;100937.47;5112173;28;20027;-68
2022/03/11 06:25:14;;;;;;;7.07;3.63;;;;;;;18.72;17.47;100931.00;5120344;27;20069;-70
2022/03/11 06:27:39;;;;;;;7.15;3.30;;;;;;;18.74;17.55;100933.53;5111293;27;20434;-70
2022/03/11 06:30:05;;;;;;;5.18;3.60;;;;;;;18.73;17.36;100935.38;5110560;28;20040;-69
2022/03/11 06:32:31;;;;;;;8.02;4.47;;;;;;;18.71;17.40;100931.97;5113338;28;20039;-69
2022/03/11 06:34:57;;;;;;;6.25;3.30;;;;;;;18.76;17.62;100931.53;5113870;28;20039;-70
2022/03/11 06:37:23;;;;;;;6.40;3.53;;;;;;;18.79;17.60;100936.63;5112991;28;20083;-70
2022/03/11 06:39:48;;;;;;;5.97;3.22;;;;;;;18.82;17.68;100927.47;5114753;27;20040;-70
2022/03/11 06:42:14;;;;;;;5.80;3.83;;;;;;;18.81;17.41;100921.25;5112360;27;20425;-69
2022/03/11 06:44:39;;;;;;;7.05;3.30;;;;;;;18.83;17.44;100913.06;5113895;27;20074;-71
2022/03/11 06:47:05;;;;;;;6.78;3.55;;;;;;;18.82;17.49;100916.75;5112448;28;20043;-71
2022/03/11 06:49:30;;;;;;;7.43;3.95;;;;;;;18.80;17.13;100911.50;5113313;28;20031;-71
2022/03/11 06:51:56;;;;;;;6.32;3.83;;;;;;;18.84;17.13;100915.63;5113637;28;20035;-71
2022/03/11 06:54:21;;;;;;;8.52;4.15;;;;;;;18.85;17.15;100903.91;5111676;28;20045;-70
2022/03/11 06:56:47;;;;;;;5.28;3.38;;;;;;;18.86;17.24;100908.28;5112675;28;20043;-70
2022/03/11 06:59:12;;;;;;;6.90;3.70;;;;;;;18.86;17.07;100913.66;5113060;27;20027;-70
2022/03/11 07:01:38;;;;;;;5.57;3.80;;;;;;;18.89;16.95;100905.31;5105662;28;20043;-70
2022/03/11 07:04:03;;;;;;;8.05;3.42;;;;;;;18.91;16.93;100908.69;5112318;28;20042;-69
2022/03/11 07:06:29;;;;;;;6.30;3.70;;;;;;;18.92;16.91;100898.81;5112082;28;20046;-70
2022/03/11 07:08:54;;;;;;;5.63;3.17;;;;;;;18.97;17.03;100901.09;5112917;28;20032;-71
2022/03/11 07:11:20;;;;;;;7.40;3.70;;;;;;;18.98;16.91;100894.75;5111601;28;20122;-70
2022/03/11 07:13:46;;;;;;;4.88;2.80;;;;;;;18.98;16.68;100892.06;5112962;28;20035;-70
2022/03/11 07:16:12;;;;;;;5.05;3.05;;;;;;;18.99;16.85;100888.41;5112713;28;20035;-70
2022/03/11 07:18:37;;;;;;;7.32;3.55;;;;;;;18.99;17.02;100891.09;5112966;28;20043;-70
2022/03/11 07:21:03;;;;;;;6.70;3.42;;;;;;;18.97;17.11;100880.47;5111980;28;20497;-70
2022/03/11 07:23:29;;;;;;;5.82;3.35;;;;;;;18.99;16.90;100883.88;5112244;28;20043;-70
2022/03/11 07:25:55;;;;;;;6.63;3.60;;;;;;;19.00;16.78;100884.72;5111956;28;20110;-69
2022/03/11 07:28:21;;;;;;;6.50;3.83;;;;;;;18.99;16.87;100883.03;5112731;28;20115;-70
2022/03/11 07:30:47;;;;;;;7.28;4.35;;;;;;;19.01;16.89;100886.44;5113216;28;20031;-70
2022/03/11 07:33:12;;;;;;;6.88;3.97;;;;;;;19.00;16.73;100876.69;5112338;28;20035;-70
2022/03/11 07:35:38;;;;;;;7.53;3.58;;;;;;;19.02;17.04;100872.84;5112065;28;20047;-69
2022/03/11 07:38:04;;;;;;;8.30;3.75;;;;;;;19.02;16.80;100877.38;5110805;28;20031;-70
2022/03/11 07:40:30;;;;;;;7.65;3.88;;;;;;;19.08;16.61;100879.47;5104980;28;20089;-71
2022/03/11 07:42:55;;;;;;;4.13;2.90;;;;;;;19.11;16.55;100873.00;5111215;28;20023;-71
2022/03/11 07:45:21;;;;;;;9.07;4.68;;;;;;;19.12;16.59;100877.34;5112619;28;20145;-71
2022/03/11 07:47:46;;;;;;;6.93;3.58;;;;;;;19.14;16.56;100870.88;5110808;28;20060;-71
2022/03/11 07:50:12;;;;;;;8.05;3.70;;;;;;;19.15;16.63;100867.19;5115124;28;20100;-71
2022/03/11 07:52:39;;;;;;;5.40;3.60;;;;;;;19.16;16.61;100863.53;5110938;28;20039;-69
2022/03/11 07:55:09;;;;;;;7.75;4.50;;;;;;;19.20;16.43;100856.84;5112810;28;20075;-69
2022/03/11 07:57:39;;;;;;;6.97;4.38;;;;;;;19.20;16.61;100853.34;5110603;28;20410;-69
2022/03/11 08:00:08;;;;;;;11.52;4.65;;;;;;;19.23;16.41;100853.06;5112761;28;20027;-71
2022/03/11 08:02:34;;;;;;;8.68;4.30;;;;;;;19.25;16.24;100847.53;5112345;28;20041;-70
2022/03/11 08:05:00;;;;;;;8.40;4.53;;;;;;;19.25;16.40;100853.75;5112639;28;20053;-70
2022/03/11 08:07:26;;;;;;;7.03;3.40;;;;;;;19.25;16.42;100845.72;5112009;28;20027;-70
2022/03/11 08:09:52;;;;;;;7.35;3.53;;;;;;;19.27;16.63;100838.34;5124275;28;20035;-70
2022/03/11 08:12:17;;;;;;;8.40;3.53;;;;;;;19.24;16.66;100833.28;5113812;27;20032;-70
2022/03/11 08:14:43;;;;;;;10.00;2.67;;;;;;;19.23;16.59;100838.78;5112675;28;20054;-70
2022/03/11 08:17:09;;;;;;;5.85;3.13;;;;;;;19.23;16.60;100825.38;5112451;28;20046;-71
2022/03/11 08:19:36;;;;;;;3.85;2.47;;;;;;;19.25;16.56;100836.81;5113077;28;20251;-71
2022/03/11 08:22:02;;;;;;;3.42;2.53;;;;;;;19.25;16.42;100834.13;5111342;28;20054;-70
2022/03/11 08:24:29;;;;;;;4.80;2.50;;;;;;;19.23;16.33;100822.69;5116693;28;20405;-71
2022/03/11 08:26:55;;;;;;;3.42;1.85;;;;;;;19.24;16.33;100827.91;5115876;27;20165;-70
2022/03/11 08:29:21;;;;;;;6.00;2.30;;;;;;;19.23;16.40;100830.72;5116594;28;20077;-70
2022/03/11 08:31:47;;;;;;;5.03;2.60;;;;;;;19.18;16.41;100829.34;5116117;28;20112;-70
2022/03/11 08:34:13;;;;;;;4.55;2.20;;;;;;;19.17;16.42;100830.34;5116905;28;20122;-70
2022/03/11 08:36:39;;;;;;;6.32;2.42;;;;;;;19.16;16.35;100833.16;5116570;28;20123;-70
2022/03/11 08:39:05;;;;;;;7.32;2.92;;;;;;;19.18;16.16;100823.13;5116247;27;20039;-70
2022/03/11 08:41:32;;;;;;;6.30;2.78;;;;;;;19.19;16.31;100828.34;5115831;28;20051;-69
2022/03/11 08:43:59;;;;;;;6.35;2.33;;;;;;;19.20;16.24;100818.47;5116193;28;20062;-70
2022/03/11 08:46:26;;;;;;;5.13;2.92;;;;;;;19.18;16.07;100815.94;5116118;28;20035;-69
2022/03/11 08:48:52;;;;;;;5.40;3.17;;;;;;;19.20;16.22;100805.06;5116099;28;20029;-70
2022/03/11 08:51:17;;;;;;;7.22;3.40;;;;;;;19.21;16.23;100801.38;5115523;28;20031;-70
2022/03/11 08:53:43;;;;;;;6.30;3.65;;;;;;;19.24;16.28;100797.53;5116087;28;20031;-71
2022/03/11 08:56:08;;;;;;;4.85;3.17;;;;;;;19.21;16.20;100796.84;5116102;28;20031;-71
2022/03/11 08:58:34;;;;;;;6.63;3.55;;;;;;;19.26;16.34;100792.88;5115893;28;20394;-71
2022/03/11 09:00:59;;;;;;;5.50;2.97;;;;;;;19.26;16.23;100799.09;5102536;28;20059;-71
2022/03/11 09:03:25;;;;;;;8.80;4.07;;;;;;;19.27;16.23;100795.41;5116162;28;20122;-71
2022/03/11 09:05:50;;;;;;;7.45;4.28;;;;;;;19.27;16.35;100794.56;5115981;28;20027;-71
2022/03/11 09:08:16;;;;;;;6.60;4.32;;;;;;;19.26;16.49;100800.94;5116014;28;20478;-71
2022/03/11 09:10:41;;;;;;;5.07;3.95;;;;;;;19.24;16.74;100792.19;5115429;28;20027;-70
2022/03/11 09:13:07;;;;;;;10.98;4.90;;;;;;;19.25;16.50;100805.47;5115002;28;20164;-71
2022/03/11 09:15:32;;;;;;;9.35;5.15;;;;;;;19.25;16.59;100797.41;5115814;28;20355;-71
2022/03/11 09:17:58;;;;;;;5.60;4.32;;;;;;;19.24;16.39;100801.09;5114866;28;20031;-69
2022/03/11 09:20:24;;;;;;;6.85;4.60;;;;;;;19.25;16.48;100793.88;5115242;28;20035;-70
2022/03/11 09:22:49;;;;;;;7.88;4.13;;;;;;;19.23;16.27;100788.66;5114916;28;20041;-71
2022/03/11 09:25:18;;;;;;;7.53;3.97;;;;;;;19.25;16.58;100786.69;5115568;28;20031;-71
2022/03/11 09:27:45;;;;;;;5.68;3.60;;;;;;;19.25;16.53;100778.63;5113896;28;20039;-76
2022/03/11 09:30:11;;;;;;;5.88;2.80;;;;;;;19.26;16.59;100768.72;5113434;27;20055;-70
2022/03/11 09:32:37;;;;;;;5.43;2.63;;;;;;;19.24;16.79;100768.88;5112707;28;20190;-71
2022/03/11 09:35:05;;;;;;;4.03;2.80;;;;;;;19.20;16.65;100762.13;5113352;27;20035;-71
2022/03/11 09:37:31;;;;;;;7.03;2.85;;;;;;;19.20;16.79;100767.50;5110690;28;20031;-70
2022/03/11 09:39:56;;;;;;;6.50;2.60;;;;;;;19.17;16.93;100760.59;5114853;27;20063;-69
2022/03/11 09:42:22;;;;;;;3.90;2.40;;;;;;;19.16;16.89;100753.53;5114017;28;20074;-71
2022/03/11 09:44:53;;;;;;;3.75;2.40;;;;;;;19.15;16.88;100754.53;5115251;28;20066;-68
2022/03/11 09:47:20;;;;;;;5.75;2.60;;;;;;;19.17;17.17;100751.69;5114599;28;20046;-68
2022/03/11 09:49:50;;;;;;;5.82;3.03;;;;;;;19.21;17.27;100753.91;5111988;28;20055;-71
2022/03/11 09:52:17;;;;;;;6.20;4.28;;;;;;;19.23;16.88;100750.25;5114040;28;20398;-69
2022/03/11 09:54:45;;;;;;;8.57;3.13;;;;;;;19.21;16.98;100745.88;5112973;27;20126;-68
2022/03/11 09:57:12;;;;;;;6.60;3.55;;;;;;;19.22;16.80;100738.69;5115874;27;20035;-66
2022/03/11 09:59:38;;;;;;;6.47;3.65;;;;;;;19.19;17.84;100738.97;5113636;27;20041;-68
2022/03/11 10:02:11;;;;;;;5.70;3.47;;;;;;;19.25;17.83;100742.88;5112813;27;20028;-69
2022/03/11 10:04:37;;;;;;;5.35;2.90;;;;;;;19.26;17.31;100731.16;5114276;28;20035;-69
2022/03/11 10:07:03;;;;;;;6.18;3.80;;;;;;;19.26;17.24;100728.47;5113554;28;20043;-71
2022/03/11 10:09:30;;;;;;;7.45;2.95;;;;;;;19.26;17.59;100715.06;5114013;28;20028;-72
2022/03/11 10:12:00;;;;;;;5.93;3.38;;;;;;;19.28;17.37;100721.13;5118825;27;20023;-72
2022/03/11 10:14:32;;;;;;;4.28;2.90;;;;;;;19.29;17.44;100722.81;5119731;27;20028;-72
2022/03/11 10:16:58;;;;;;;9.98;3.30;;;;;;;19.32;17.63;100719.84;5114318;28;20039;-70
2022/03/11 10:19:24;;;;;;;4.32;2.55;;;;;;;19.33;17.75;100719.69;5113705;28;20031;-71
2022/03/11 10:21:50;;;;;;;4.40;2.10;;;;;;;19.34;17.35;100721.38;5113539;27;20468;-71
2022/03/11 10:24:20;;;;;;;5.32;2.45;;;;;;;19.33;17.59;100708.13;5114480;28;20118;-71
2022/03/11 10:26:51;;;;;;;6.45;2.53;;;;;;;19.32;18.14;100701.91;5113950;28;20092;-71
2022/03/11 10:29:27;;;;;;;4.50;2.10;;;;;;;19.35;18.31;100695.38;5096106;28;20039;-71
2022/03/11 10:31:59;;;;;;;3.92;2.30;;;;;;;19.38;17.82;100687.03;5103139;27;20027;-70
2022/03/11 10:34:30;;;;;;;6.38;1.80;;;;;;;19.39;17.62;100691.41;5114158;28;20031;-71
2022/03/11 10:37:01;;;;;;;4.43;2.35;;;;;;;19.22;18.17;100695.75;5112031;27;20028;-72
2022/03/11 10:39:36;;;;;;;5.10;2.22;;;;;;;18.72;18.57;100684.31;5111099;28;20051;-72
2022/03/11 10:42:17;;;;;;;4.95;2.75;;;;;;;18.16;18.83;100675.28;5113023;28;20130;-73
2022/03/11 10:45:08;;;;;;;3.95;1.90;;;;;;;17.79;18.90;100679.47;5125204;27;20039;-71
2022/03/11 10:47:35;;;;;;;5.43;2.05;;;;;;;17.50;18.96;100672.25;5111188;27;20023;-74
2022/03/11 10:50:04;;;;;;;8.00;2.00;;;;;;;17.32;19.12;100672.09;5113896;27;20438;-73
2022/03/11 10:52:31;;;;;;;4.40;2.20;;;;;;;17.18;19.22;100675.16;5109473;28;20039;-70
2022/03/11 10:54:58;;;;;;;5.15;1.92;;;;;;;17.05;19.61;100673.56;5110670;28;20070;-72
2022/03/11 10:57:34;;;;;;;5.18;1.95;;;;;;;16.94;19.71;100665.63;5110906;28;20031;-70
2022/03/11 11:00:27;;;;;;;2.67;1.70;;;;;;;16.78;19.37;100660.75;5111833;27;20070;-71
2022/03/11 11:02:58;;;;;;;6.55;2.25;;;;;;;16.59;19.13;100645.47;5108111;28;20047;-72
2022/03/11 11:05:26;;;;;;;4.05;1.88;;;;;;;16.48;19.13;100649.94;5113747;28;20032;-72
2022/03/11 11:07:53;;;;;;;4.68;2.10;;;;;;;16.43;19.34;100645.97;5114025;28;20474;-72
2022/03/11 11:10:20;;;;;;;3.78;1.70;;;;;;;16.33;19.52;100636.03;5110670;28;20122;-72
2022/03/11 11:12:47;;;;;;;4.35;1.73;;;;;;;16.26;19.08;100639.38;5109073;28;20042;-72
2022/03/11 11:15:15;;;;;;;5.10;2.05;;;;;;;16.15;18.87;100630.47;5113630;28;20066;-72
2022/03/11 11:17:43;;;;;;;4.90;1.63;;;;;;;16.09;19.09;100614.13;5113026;28;20070;-72
2022/03/11 11:20:32;;;;;;;3.38;1.80;;;;;;;16.12;19.13;100619.19;5113466;28;20040;-71